Time;durP1;ratioP1;P1;durP2;ratioP2;P2;SDS_P1;SDS_P2;PMS_P1;PMS_P2;Temp;Humidity;BMP_temperature;BMP_pressure;BME280_temperature;BME280_humidity;BME280_pressure;Samples;Min_cycle;Max_cycle;Signal;HPM_P1;HPM_P2
2023/05/18 00:00:43;;;;;;;8.40;2.78;;;;;;;9.38;72.40;102691.16;5055825;28;20389;-66
2023/05/18 00:03:11;;;;;;;7.82;2.70;;;;;;;9.45;72.81;102691.13;5057021;28;20119;-66
2023/05/18 00:05:41;;;;;;;10.98;2.97;;;;;;;9.50;72.44;102688.59;5057703;28;20489;-65
2023/05/18 00:08:09;;;;;;;8.73;2.63;;;;;;;9.45;72.50;102690.28;5058126;28;20416;-65
2023/05/18 00:10:37;;;;;;;9.45;2.85;;;;;;;9.47;72.71;102696.34;5055656;28;20469;-66
2023/05/18 00:13:07;;;;;;;10.63;3.20;;;;;;;9.53;72.98;102685.44;5049572;28;20044;-65
2023/05/18 00:15:35;;;;;;;11.20;3.10;;;;;;;9.58;72.29;102696.53;5077592;28;20056;-63
2023/05/18 00:18:03;;;;;;;10.35;3.17;;;;;;;9.67;72.39;102697.13;5047336;28;20041;-66
2023/05/18 00:20:30;;;;;;;8.63;2.90;;;;;;;9.73;71.62;102693.53;5042693;28;20049;-65
2023/05/18 00:22:59;;;;;;;7.40;2.70;;;;;;;9.67;71.47;102699.00;5037566;28;20564;-66
2023/05/18 00:25:27;;;;;;;11.40;3.00;;;;;;;9.60;72.03;102693.59;5054701;28;20049;-66
2023/05/18 00:27:55;;;;;;;9.38;2.72;;;;;;;9.55;72.26;102687.97;5054299;28;20045;-65
2023/05/18 00:30:24;;;;;;;15.15;3.30;;;;;;;9.53;72.54;102695.50;5057034;28;20049;-66
2023/05/18 00:32:52;;;;;;;12.02;2.90;;;;;;;9.48;72.50;102687.97;5074253;28;20044;-66
2023/05/18 00:35:20;;;;;;;9.27;2.80;;;;;;;9.51;72.54;102686.72;5085814;28;20056;-65
2023/05/18 00:37:48;;;;;;;8.00;2.50;;;;;;;9.57;72.60;102688.56;5085309;28;20047;-64
2023/05/18 00:40:16;;;;;;;9.18;2.90;;;;;;;9.63;72.05;102695.88;5060042;28;20071;-65
2023/05/18 00:42:47;;;;;;;10.82;3.35;;;;;;;9.59;72.20;102694.63;5056162;28;20041;-64
2023/05/18 00:45:15;;;;;;;7.82;2.70;;;;;;;9.50;72.27;102694.06;5063569;28;20049;-64
2023/05/18 00:47:43;;;;;;;9.20;3.10;;;;;;;9.38;72.83;102699.31;5071299;28;20035;-60
2023/05/18 00:50:12;;;;;;;11.77;3.40;;;;;;;9.39;73.48;102702.88;5043429;28;20041;-64
2023/05/18 00:52:40;;;;;;;8.63;2.65;;;;;;;9.35;72.79;102694.28;5049840;28;20053;-65
2023/05/18 00:55:08;;;;;;;10.13;2.88;;;;;;;9.41;73.21;102697.22;5034020;28;20045;-66
2023/05/18 00:57:37;;;;;;;10.57;2.90;;;;;;;9.44;72.47;102694.91;5033885;28;20076;-66
2023/05/18 01:00:09;;;;;;;10.18;2.90;;;;;;;9.41;72.58;102695.34;5042206;28;20045;-65
2023/05/18 01:02:41;;;;;;;8.68;2.97;;;;;;;9.29;72.61;102695.16;5054693;28;20045;-65
2023/05/18 01:05:09;;;;;;;7.00;2.80;;;;;;;9.20;73.62;102693.72;5053192;28;20076;-65
2023/05/18 01:07:41;;;;;;;9.52;2.83;;;;;;;9.10;74.01;102699.59;5054954;28;20091;-65
2023/05/18 01:10:10;;;;;;;8.85;2.90;;;;;;;8.92;75.08;102697.53;5036227;28;20032;-65
2023/05/18 01:13:00;;;;;;;10.35;3.13;;;;;;;8.96;75.17;102704.19;5054343;28;20370;-63
2023/05/18 01:15:36;;;;;;;12.00;2.95;;;;;;;8.98;75.57;102701.28;5036676;28;20477;-65
2023/05/18 01:18:13;;;;;;;11.02;3.30;;;;;;;9.07;74.47;102707.34;5053290;28;20072;-66
2023/05/18 01:21:42;;;;;;;10.75;3.15;;;;;;;9.07;74.70;102704.63;5052102;28;20083;-66
2023/05/18 01:24:35;;;;;;;10.63;3.00;;;;;;;9.20;74.71;102706.47;5025135;28;20103;-66
2023/05/18 01:27:05;;;;;;;11.10;3.00;;;;;;;9.27;73.70;102712.75;5033671;28;20040;-64
2023/05/18 01:29:34;;;;;;;8.57;2.92;;;;;;;9.17;74.35;102711.28;5056354;28;20072;-64
2023/05/18 01:32:06;;;;;;;10.30;2.67;;;;;;;9.20;74.83;102715.47;5042529;28;20049;-66
2023/05/18 01:34:34;;;;;;;9.10;2.90;;;;;;;9.25;74.75;102707.50;5052533;28;20048;-65
2023/05/18 01:37:02;;;;;;;9.07;2.72;;;;;;;9.17;73.98;102713.19;5054424;28;20070;-65
2023/05/18 01:39:29;;;;;;;9.70;3.28;;;;;;;9.12;74.64;102712.97;5037745;28;20079;-66
2023/05/18 01:42:05;;;;;;;10.15;2.72;;;;;;;9.01;75.15;102700.84;5035963;28;20124;-66
2023/05/18 01:44:43;;;;;;;10.57;3.25;;;;;;;8.98;76.08;102714.03;5045645;28;20076;-66
2023/05/18 01:47:16;;;;;;;7.65;2.83;;;;;;;8.93;76.35;102704.63;5040787;28;20049;-65
2023/05/18 01:49:55;;;;;;;10.82;2.95;;;;;;;8.97;75.60;102710.47;5053355;28;20053;-66
2023/05/18 01:52:42;;;;;;;9.13;3.22;;;;;;;8.77;76.92;102705.06;5057890;28;20127;-66
2023/05/18 01:55:10;;;;;;;7.25;3.00;;;;;;;8.65;77.30;102702.13;5040153;28;20132;-66
2023/05/18 01:57:42;;;;;;;9.68;3.10;;;;;;;8.69;77.80;102710.72;5048486;28;20037;-65
2023/05/18 02:00:10;;;;;;;12.13;3.42;;;;;;;8.69;78.55;102702.56;5040248;28;20052;-65
2023/05/18 02:02:46;;;;;;;10.35;2.88;;;;;;;8.77;77.54;102699.63;5057193;28;20127;-66
2023/05/18 02:05:16;;;;;;;9.60;3.22;;;;;;;8.73;76.62;102703.78;5049296;28;20061;-66
2023/05/18 02:07:46;;;;;;;7.65;2.92;;;;;;;8.75;78.06;102698.97;5077715;28;20040;-66
2023/05/18 02:10:14;;;;;;;8.32;2.63;;;;;;;8.79;77.64;102697.53;5056832;28;20041;-65
2023/05/18 02:12:42;;;;;;;10.55;3.20;;;;;;;8.82;77.59;102691.66;5056820;28;20128;-66
2023/05/18 02:15:10;;;;;;;12.98;2.75;;;;;;;8.90;76.83;102702.34;5056690;28;20041;-65
2023/05/18 02:17:38;;;;;;;12.98;3.72;;;;;;;8.83;76.81;102693.34;5057171;28;20049;-65
2023/05/18 02:20:10;;;;;;;11.63;3.00;;;;;;;8.82;77.14;102696.28;5040225;28;20041;-64
2023/05/18 02:22:38;;;;;;;9.70;3.47;;;;;;;8.77;77.46;102693.34;5036457;28;20045;-65
2023/05/18 02:25:06;;;;;;;12.00;3.20;;;;;;;8.67;77.19;102689.16;5036007;28;20540;-65
2023/05/18 02:27:35;;;;;;;12.23;3.40;;;;;;;8.55;78.51;102695.44;5019876;28;20056;-65
2023/05/18 02:30:07;;;;;;;8.68;2.88;;;;;;;8.64;78.76;102694.19;5036832;28;20103;-66
2023/05/18 02:32:38;;;;;;;8.10;3.15;;;;;;;8.60;78.35;102693.75;5036465;28;20549;-66
2023/05/18 02:35:07;;;;;;;7.57;2.80;;;;;;;8.58;77.76;102686.88;5052912;28;20048;-66
2023/05/18 02:37:38;;;;;;;12.18;3.55;;;;;;;8.50;78.38;102688.75;5057044;28;20103;-66
2023/05/18 02:40:11;;;;;;;11.52;3.60;;;;;;;8.54;78.41;102683.75;5055783;28;20037;-66
2023/05/18 02:42:40;;;;;;;10.43;3.58;;;;;;;8.61;78.27;102694.59;5064312;28;20556;-64
2023/05/18 02:45:08;;;;;;;10.25;3.20;;;;;;;8.62;78.77;102690.84;5062791;28;20083;-65
2023/05/18 02:47:36;;;;;;;14.50;3.30;;;;;;;8.64;78.36;102677.91;5039040;28;20054;-66
2023/05/18 02:50:04;;;;;;;10.65;3.47;;;;;;;8.61;78.08;102678.28;5038117;28;20041;-65
2023/05/18 02:52:33;;;;;;;10.20;3.35;;;;;;;8.60;77.78;102676.63;5055427;28;20052;-65
2023/05/18 02:55:02;;;;;;;8.02;2.88;;;;;;;8.56;78.67;102675.38;5056734;28;20037;-65
2023/05/18 02:57:55;;;;;;;9.18;3.33;;;;;;;8.49;78.96;102680.78;5056026;28;20557;-66
2023/05/18 03:00:35;;;;;;;10.57;3.33;;;;;;;8.42;79.67;102685.38;5033779;28;20374;-66
2023/05/18 03:03:03;;;;;;;8.27;3.08;;;;;;;8.41;79.58;102679.13;5053931;28;20118;-64
2023/05/18 03:05:32;;;;;;;13.65;3.35;;;;;;;8.38;80.01;102678.69;5038873;28;20061;-65
2023/05/18 03:08:01;;;;;;;12.88;3.67;;;;;;;8.30;79.74;102682.44;5045537;28;20059;-65
2023/05/18 03:10:30;;;;;;;7.35;3.20;;;;;;;8.24;79.99;102675.09;5058186;28;20055;-65
2023/05/18 03:12:58;;;;;;;12.75;3.67;;;;;;;8.30;80.33;102679.72;5043976;28;20115;-66
2023/05/18 03:15:26;;;;;;;10.32;3.53;;;;;;;8.33;80.38;102682.03;5058847;28;20106;-64
2023/05/18 03:17:54;;;;;;;10.07;3.08;;;;;;;8.33;80.84;102684.72;5075369;28;20442;-66
2023/05/18 03:20:22;;;;;;;10.25;3.20;;;;;;;8.29;80.09;102686.19;5074523;28;20385;-66
2023/05/18 03:22:50;;;;;;;10.73;3.60;;;;;;;8.30;79.85;102693.31;5058309;28;20108;-65
2023/05/18 03:25:19;;;;;;;9.35;3.22;;;;;;;8.21;80.16;102684.50;5043227;28;20044;-65
2023/05/18 03:27:50;;;;;;;10.65;3.20;;;;;;;8.10;81.61;102694.09;5055647;28;20061;-67
2023/05/18 03:30:19;;;;;;;10.50;3.67;;;;;;;8.10;81.36;102685.09;5054237;28;20037;-66
2023/05/18 03:32:49;;;;;;;12.45;3.30;;;;;;;8.06;81.94;102684.69;5038388;28;20041;-64
2023/05/18 03:35:17;;;;;;;10.57;3.47;;;;;;;7.94;82.96;102678.19;5054604;28;20124;-66
2023/05/18 03:37:45;;;;;;;9.93;3.33;;;;;;;7.89;83.24;102678.81;5054927;28;20451;-65
2023/05/18 03:40:15;;;;;;;11.07;3.38;;;;;;;7.91;82.91;102684.00;5055874;28;20041;-66
2023/05/18 03:42:44;;;;;;;10.65;3.40;;;;;;;7.92;83.46;102684.88;5039313;28;20068;-66
2023/05/18 03:45:12;;;;;;;9.93;3.30;;;;;;;7.93;83.58;102681.09;5043441;28;20044;-66
2023/05/18 03:47:41;;;;;;;8.70;3.28;;;;;;;7.93;83.02;102684.63;5074751;28;20064;-67
2023/05/18 03:50:09;;;;;;;10.18;3.95;;;;;;;7.90;83.23;102680.47;5059518;28;20455;-66
2023/05/18 03:52:38;;;;;;;13.40;3.58;;;;;;;7.88;83.28;102684.41;5054239;28;20103;-65
2023/05/18 03:55:07;;;;;;;10.98;3.47;;;;;;;7.84;84.45;102689.44;5037820;28;20045;-66
2023/05/18 03:57:35;;;;;;;8.95;3.10;;;;;;;7.89;83.43;102683.41;5054422;28;20045;-66
2023/05/18 04:00:09;;;;;;;10.32;3.53;;;;;;;7.86;84.02;102687.34;5034323;28;20041;-67
2023/05/18 04:02:43;;;;;;;13.68;3.40;;;;;;;7.87;83.67;102693.63;5034829;28;20063;-67
2023/05/18 04:05:14;;;;;;;10.85;3.72;;;;;;;7.80;83.77;102692.75;5052643;28;20084;-64
2023/05/18 04:07:45;;;;;;;13.45;4.15;;;;;;;7.82;84.26;102696.09;5054911;28;20051;-66
2023/05/18 04:10:13;;;;;;;9.98;3.20;;;;;;;7.83;84.49;102692.34;5053771;28;20507;-66
2023/05/18 04:12:42;;;;;;;12.48;4.00;;;;;;;7.88;84.88;102695.28;5037569;28;20079;-66
2023/05/18 04:15:13;;;;;;;10.73;3.67;;;;;;;7.82;85.05;102698.81;5052504;28;20080;-67
2023/05/18 04:17:44;;;;;;;9.73;3.40;;;;;;;7.83;85.09;102697.78;5038699;28;20045;-66
2023/05/18 04:20:13;;;;;;;10.52;3.58;;;;;;;7.71;85.21;102705.66;5017347;28;20048;-66
2023/05/18 04:22:45;;;;;;;15.45;3.97;;;;;;;7.65;85.31;102698.34;5017646;28;20073;-66
2023/05/18 04:25:14;;;;;;;12.23;3.55;;;;;;;7.67;85.97;102705.22;5032759;28;20049;-65
2023/05/18 04:27:45;;;;;;;11.63;3.28;;;;;;;7.69;86.04;102713.97;5035048;28;20041;-65
2023/05/18 04:30:17;;;;;;;8.95;3.30;;;;;;;7.78;85.01;102711.13;5018107;28;20041;-66
2023/05/18 04:32:46;;;;;;;13.07;3.70;;;;;;;7.73;85.67;102714.44;5049506;28;20041;-65
2023/05/18 04:35:14;;;;;;;9.85;3.60;;;;;;;7.78;85.63;102716.53;5033218;28;20065;-66
2023/05/18 04:37:42;;;;;;;9.02;3.38;;;;;;;7.84;85.71;102708.44;5036788;28;20504;-64
2023/05/18 04:40:16;;;;;;;9.80;3.67;;;;;;;7.94;84.83;102716.19;5044950;28;20053;-64
2023/05/18 04:42:46;;;;;;;11.25;3.95;;;;;;;7.98;84.51;102722.84;5079466;28;20079;-64
2023/05/18 04:45:19;;;;;;;11.35;3.60;;;;;;;7.99;84.24;102727.25;5061467;28;20041;-63
2023/05/18 04:47:52;;;;;;;12.38;3.60;;;;;;;7.94;83.84;102718.91;5049590;28;20072;-63
2023/05/18 04:50:22;;;;;;;9.48;3.00;;;;;;;7.87;84.75;102724.31;5031009;28;20080;-66
2023/05/18 04:52:51;;;;;;;13.02;3.75;;;;;;;7.75;85.37;102722.38;5075054;28;20072;-64
2023/05/18 04:55:27;;;;;;;11.32;3.95;;;;;;;7.81;85.97;102721.56;5058438;28;20052;-64
2023/05/18 04:58:09;;;;;;;11.50;4.00;;;;;;;7.94;85.72;102727.03;5071453;28;20051;-60
2023/05/18 05:00:37;;;;;;;12.77;3.70;;;;;;;7.99;85.24;102723.72;5043393;28;20060;-65
2023/05/18 05:03:05;;;;;;;10.30;3.80;;;;;;;7.98;85.01;102725.56;5018241;28;20053;-65
2023/05/18 05:05:34;;;;;;;13.88;4.13;;;;;;;8.02;85.31;102728.72;5033667;28;20468;-66
2023/05/18 05:08:03;;;;;;;11.63;4.28;;;;;;;8.06;84.78;102730.00;5045912;28;20048;-64
2023/05/18 05:10:31;;;;;;;14.68;4.57;;;;;;;8.03;85.16;102733.97;5042199;28;20119;-65
2023/05/18 05:12:59;;;;;;;11.82;3.92;;;;;;;7.89;84.92;102734.97;5033384;28;20409;-66
2023/05/18 05:15:27;;;;;;;12.95;3.88;;;;;;;7.81;85.75;102735.13;5054418;28;20049;-65
2023/05/18 05:17:55;;;;;;;14.18;4.07;;;;;;;7.90;85.95;102736.63;5020001;28;20118;-66
2023/05/18 05:20:23;;;;;;;11.48;4.03;;;;;;;7.96;85.62;102730.41;5051937;28;20044;-66
2023/05/18 05:22:52;;;;;;;11.13;4.32;;;;;;;7.92;86.13;102734.53;5019954;28;20045;-66
2023/05/18 05:25:23;;;;;;;9.73;4.25;;;;;;;7.86;86.09;102733.50;5036542;28;20076;-67
2023/05/18 05:27:52;;;;;;;12.27;4.13;;;;;;;7.87;85.78;102737.88;5051420;28;20055;-67
2023/05/18 05:30:21;;;;;;;15.40;4.45;;;;;;;7.90;85.74;102733.91;5032426;28;20041;-66
2023/05/18 05:32:48;;;;;;;12.10;4.13;;;;;;;7.89;84.90;102734.97;5033205;28;20393;-65
2023/05/18 05:35:16;;;;;;;13.38;4.10;;;;;;;7.99;86.01;102731.88;5016323;28;20127;-66
2023/05/18 05:37:45;;;;;;;12.05;3.72;;;;;;;7.98;84.96;102733.72;5038911;28;20484;-66
2023/05/18 05:40:14;;;;;;;11.73;4.13;;;;;;;8.01;85.57;102738.75;5033211;28;20087;-66
2023/05/18 05:42:44;;;;;;;12.75;3.85;;;;;;;8.11;85.61;102738.38;5018235;28;20412;-66
2023/05/18 05:45:13;;;;;;;13.02;4.00;;;;;;;8.12;84.73;102734.59;5033726;28;20033;-64
2023/05/18 05:47:45;;;;;;;15.20;4.28;;;;;;;8.10;85.12;102736.69;5050288;28;20058;-66
2023/05/18 05:50:14;;;;;;;26.60;4.57;;;;;;;8.10;85.75;102726.69;5025336;28;20056;-66
2023/05/18 05:52:43;;;;;;;12.82;4.25;;;;;;;8.11;86.06;102735.66;5034121;28;20050;-66
2023/05/18 05:55:11;;;;;;;11.30;4.30;;;;;;;8.18;85.77;102732.94;5033497;28;20080;-66
2023/05/18 05:57:41;;;;;;;13.93;4.50;;;;;;;8.15;85.01;102733.34;5053879;28;20045;-65
2023/05/18 06:00:11;;;;;;;14.15;4.32;;;;;;;8.16;85.35;102732.34;5000368;28;20076;-65
2023/05/18 06:02:50;;;;;;;11.60;3.92;;;;;;;8.21;85.19;102733.38;5033383;28;20053;-65
2023/05/18 06:05:26;;;;;;;11.88;4.38;;;;;;;8.26;84.88;102739.03;5049901;28;20084;-66
2023/05/18 06:07:56;;;;;;;13.18;4.13;;;;;;;8.31;83.88;102728.38;4703982;28;10000302;-66
2023/05/18 06:10:23;;;;;;;8.82;3.35;;;;;;;8.37;83.54;102732.19;5025917;28;20073;-66
2023/05/18 06:12:52;;;;;;;15.77;4.38;;;;;;;8.43;82.82;102736.78;5029207;28;20049;-67
2023/05/18 06:15:23;;;;;;;12.07;3.70;;;;;;;8.47;82.37;102735.34;5028220;28;20449;-66
2023/05/18 06:17:51;;;;;;;20.92;4.32;;;;;;;8.57;80.71;102736.84;5037604;28;20107;-66
2023/05/18 06:20:18;;;;;;;14.27;3.88;;;;;;;8.56;81.21;102741.41;5048348;28;20450;-66
2023/05/18 06:22:46;;;;;;;18.60;4.30;;;;;;;8.55;81.38;102739.75;5050510;28;20041;-66
2023/05/18 06:25:31;;;;;;;11.93;3.88;;;;;;;8.59;80.59;102730.16;5049839;28;20251;-66
2023/05/18 06:28:25;;;;;;;12.85;3.70;;;;;;;8.67;79.02;102737.25;5029531;28;20061;-67
2023/05/18 06:31:00;;;;;;;13.80;3.55;;;;;;;8.70;78.33;102743.09;5045402;28;20048;-66
2023/05/18 06:33:45;;;;;;;12.88;4.03;;;;;;;8.71;77.94;102743.94;5034107;28;20519;-65
2023/05/18 06:36:15;;;;;;;17.73;3.95;;;;;;;8.70;78.34;102753.13;5048439;28;20061;-66
2023/05/18 06:38:43;;;;;;;14.55;3.83;;;;;;;8.74;77.75;102748.97;5037702;28;20051;-65
2023/05/18 06:41:11;;;;;;;13.57;3.97;;;;;;;8.70;78.57;102750.41;5034321;28;20095;-66
2023/05/18 06:43:39;;;;;;;18.40;4.95;;;;;;;8.70;78.66;102740.38;5052329;28;20049;-66
2023/05/18 06:46:23;;;;;;;14.50;4.15;;;;;;;8.65;78.54;102750.19;5024694;28;20051;-65
2023/05/18 06:48:55;;;;;;;16.25;4.63;;;;;;;8.66;79.35;102752.72;5054615;28;20123;-65
2023/05/18 06:51:22;;;;;;;10.77;3.50;;;;;;;8.81;78.88;102751.69;5035898;28;20052;-65
2023/05/18 06:53:50;;;;;;;11.93;3.97;;;;;;;8.90;78.22;102754.00;5035874;28;20049;-66
2023/05/18 06:56:18;;;;;;;13.13;3.88;;;;;;;8.99;78.37;102753.75;5052765;28;20056;-66
2023/05/18 06:58:47;;;;;;;15.90;4.05;;;;;;;9.04;78.34;102748.53;5021026;28;20037;-67
2023/05/18 07:01:16;;;;;;;13.27;4.55;;;;;;;9.05;78.62;102753.78;5034468;28;20076;-66
2023/05/18 07:03:44;;;;;;;13.75;4.18;;;;;;;9.04;77.96;102759.41;5051418;28;20100;-65
2023/05/18 07:06:12;;;;;;;16.42;4.40;;;;;;;9.02;78.41;102761.50;5064973;28;20085;-65
2023/05/18 07:08:40;;;;;;;13.05;3.97;;;;;;;9.04;79.57;102759.41;5021953;28;20068;-66
2023/05/18 07:11:08;;;;;;;11.10;3.97;;;;;;;9.10;79.49;102769.47;5055994;28;20069;-66
2023/05/18 07:13:36;;;;;;;15.07;4.40;;;;;;;9.21;78.28;102763.34;5056188;28;20045;-65
2023/05/18 07:16:04;;;;;;;13.00;3.90;;;;;;;9.29;78.16;102771.31;5056440;28;20076;-66
2023/05/18 07:18:32;;;;;;;11.73;3.97;;;;;;;9.31;77.54;102768.41;5074141;28;20048;-66
2023/05/18 07:21:00;;;;;;;12.95;4.03;;;;;;;9.28;77.60;102766.91;5054760;28;20051;-65
2023/05/18 07:23:28;;;;;;;10.82;4.15;;;;;;;9.30;77.58;102762.09;5055067;28;20094;-66
2023/05/18 07:25:56;;;;;;;12.90;3.90;;;;;;;9.34;77.66;102765.25;5056322;28;20111;-65
2023/05/18 07:28:24;;;;;;;13.23;3.97;;;;;;;9.41;77.69;102766.06;5038595;28;20471;-64
2023/05/18 07:30:52;;;;;;;14.63;4.57;;;;;;;9.44;76.80;102770.25;5052975;28;20045;-66
2023/05/18 07:33:20;;;;;;;15.02;4.45;;;;;;;9.42;76.71;102778.63;5052878;28;20047;-67
2023/05/18 07:35:47;;;;;;;15.48;4.63;;;;;;;9.35;76.10;102781.34;5055490;28;20094;-66
2023/05/18 07:38:15;;;;;;;15.77;4.28;;;;;;;9.36;76.54;102774.88;5047213;28;20052;-66
2023/05/18 07:40:43;;;;;;;14.32;4.43;;;;;;;9.45;76.80;102783.63;5053517;28;20053;-65
2023/05/18 07:43:10;;;;;;;14.35;4.68;;;;;;;9.50;76.89;102780.28;5052959;28;20125;-65
2023/05/18 07:45:38;;;;;;;11.85;4.30;;;;;;;9.55;75.91;102789.47;5054688;28;20103;-65
2023/05/18 07:48:06;;;;;;;13.63;4.38;;;;;;;9.53;75.46;102786.13;5038523;28;20053;-66
2023/05/18 07:50:34;;;;;;;13.80;4.28;;;;;;;9.55;75.25;102794.94;5022104;28;20048;-66
2023/05/18 07:53:03;;;;;;;18.90;4.65;;;;;;;9.58;75.10;102789.06;5055691;28;20132;-64
2023/05/18 07:55:31;;;;;;;13.63;4.78;;;;;;;9.63;74.92;102784.88;5055457;28;20384;-66
2023/05/18 07:57:59;;;;;;;13.07;4.28;;;;;;;9.65;74.28;102799.94;5054335;28;20079;-65
2023/05/18 08:00:27;;;;;;;16.38;4.30;;;;;;;9.68;74.30;102791.34;5055472;28;20051;-65
2023/05/18 08:02:55;;;;;;;13.07;4.25;;;;;;;9.74;74.22;102795.94;5056435;28;20041;-65
2023/05/18 08:05:23;;;;;;;12.35;4.07;;;;;;;9.82;73.53;102794.84;5055537;28;20531;-66
2023/05/18 08:07:51;;;;;;;13.38;4.00;;;;;;;9.89;73.64;102794.84;5055476;28;20096;-66
2023/05/18 08:10:19;;;;;;;14.45;4.15;;;;;;;9.93;73.37;102793.34;5054935;28;20119;-65
2023/05/18 08:12:46;;;;;;;16.25;4.20;;;;;;;9.96;73.59;102801.94;5053893;28;20037;-66
2023/05/18 08:15:14;;;;;;;15.38;4.38;;;;;;;9.96;73.39;102795.66;5069003;28;20440;-66
2023/05/18 08:17:42;;;;;;;12.73;4.00;;;;;;;9.98;72.17;102794.38;5075281;28;20098;-65
2023/05/18 08:20:11;;;;;;;15.18;4.55;;;;;;;9.99;71.83;102803.38;5073321;28;20547;-66
2023/05/18 08:22:38;;;;;;;13.20;4.10;;;;;;;10.03;72.34;102804.63;5057305;28;20386;-64
2023/05/18 08:25:06;;;;;;;16.85;5.10;;;;;;;10.09;72.22;102801.03;5053452;28;20502;-65
2023/05/18 08:27:34;;;;;;;13.65;5.10;;;;;;;10.18;72.56;102797.00;5056085;28;20489;-65
2023/05/18 08:30:02;;;;;;;15.20;5.07;;;;;;;10.22;72.31;102798.25;5037279;28;20044;-66
2023/05/18 08:32:31;;;;;;;16.15;4.50;;;;;;;10.28;72.08;102790.28;5055176;28;20044;-63
2023/05/18 08:34:59;;;;;;;14.40;4.85;;;;;;;10.31;71.31;102787.97;5055019;28;20049;-65
2023/05/18 08:37:28;;;;;;;15.27;5.18;;;;;;;10.38;70.71;102788.75;5055001;28;20052;-65
2023/05/18 08:39:58;;;;;;;12.85;4.03;;;;;;;10.46;69.45;102782.22;5054691;28;20128;-66
2023/05/18 08:42:33;;;;;;;16.45;4.57;;;;;;;10.50;69.45;102786.19;5053769;28;20045;-66
2023/05/18 08:45:35;;;;;;;21.83;5.55;;;;;;;10.59;68.86;102782.16;5054937;28;20047;-65
2023/05/18 08:48:04;;;;;;;18.40;5.28;;;;;;;10.60;68.73;102780.25;5054016;28;20049;-64
2023/05/18 08:50:32;;;;;;;15.02;4.90;;;;;;;10.65;68.19;102784.00;5036991;28;20045;-65
2023/05/18 08:53:04;;;;;;;15.10;4.28;;;;;;;10.69;67.69;102778.94;5070183;28;20110;-64
2023/05/18 08:55:35;;;;;;;17.85;4.93;;;;;;;10.71;68.92;102774.09;5068357;28;20045;-63
2023/05/18 08:58:06;;;;;;;15.98;4.60;;;;;;;10.75;68.53;102766.28;5089394;28;20101;-63
2023/05/18 09:00:34;;;;;;;17.63;4.60;;;;;;;10.78;67.23;102771.31;5066248;28;20120;-64
2023/05/18 09:03:04;;;;;;;13.63;4.25;;;;;;;10.78;67.47;102765.88;5083851;28;20051;-63
2023/05/18 09:05:32;;;;;;;18.00;4.30;;;;;;;10.78;65.84;102765.88;5068304;28;20084;-65
2023/05/18 09:08:02;;;;;;;20.33;5.30;;;;;;;10.82;64.95;102767.06;5064614;28;20056;-65
2023/05/18 09:10:32;;;;;;;13.90;4.57;;;;;;;10.81;64.37;102759.97;5065593;28;20041;-64
2023/05/18 09:13:01;;;;;;;11.82;3.47;;;;;;;10.83;63.87;102763.31;5054779;28;20098;-66
2023/05/18 09:15:29;;;;;;;10.93;3.58;;;;;;;10.81;64.13;102749.88;5054566;28;20461;-65
2023/05/18 09:17:57;;;;;;;15.85;4.60;;;;;;;10.91;64.84;102762.19;5050190;28;20048;-64
2023/05/18 09:20:25;;;;;;;15.15;3.92;;;;;;;10.98;63.56;102758.34;5073431;28;20049;-65
2023/05/18 09:22:53;;;;;;;13.70;4.05;;;;;;;10.96;63.48;102757.72;5074179;28;20168;-65
2023/05/18 09:25:24;;;;;;;12.77;3.95;;;;;;;10.92;62.69;102756.53;5073405;28;20110;-67
2023/05/18 09:27:52;;;;;;;15.15;4.57;;;;;;;10.90;63.20;102742.28;5074214;28;20481;-65
2023/05/18 09:30:20;;;;;;;12.82;3.92;;;;;;;10.92;62.34;102745.63;5071654;28;20059;-65
2023/05/18 09:32:48;;;;;;;11.35;4.10;;;;;;;11.02;62.30;102747.84;5056905;28;20043;-65
2023/05/18 09:35:15;;;;;;;15.98;4.47;;;;;;;11.08;62.35;102744.19;5074279;28;20098;-66
2023/05/18 09:37:43;;;;;;;12.27;4.07;;;;;;;11.13;61.40;102751.72;5072561;28;20048;-66
2023/05/18 09:40:11;;;;;;;16.60;4.85;;;;;;;11.13;62.61;102751.72;5073608;28;20044;-66
2023/05/18 09:42:41;;;;;;;15.13;4.13;;;;;;;11.17;63.09;102748.31;5070490;28;20106;-65
2023/05/18 09:45:22;;;;;;;15.48;4.32;;;;;;;11.24;62.46;102751.00;5073782;28;20370;-65
2023/05/18 09:47:51;;;;;;;15.25;4.85;;;;;;;11.30;61.86;102755.53;5072236;28;20048;-64
2023/05/18 09:50:19;;;;;;;18.10;4.68;;;;;;;11.15;62.23;102749.59;5073215;28;20506;-66
2023/05/18 09:52:51;;;;;;;16.95;4.72;;;;;;;11.12;63.38;102745.44;5055581;28;20052;-65
2023/05/18 09:55:19;;;;;;;13.93;5.05;;;;;;;11.15;63.06;102749.59;5070940;28;20481;-65
2023/05/18 09:57:48;;;;;;;15.48;4.63;;;;;;;11.27;63.09;102750.53;5072031;28;20059;-66
2023/05/18 10:00:18;;;;;;;12.77;4.35;;;;;;;11.17;61.55;102742.84;5073703;28;20101;-65
2023/05/18 10:02:51;;;;;;;14.55;4.97;;;;;;;11.08;61.13;102739.56;5055271;28;20037;-66
2023/05/18 10:05:21;;;;;;;14.15;4.88;;;;;;;11.18;62.21;102738.22;5053737;28;20114;-66
2023/05/18 10:07:52;;;;;;;18.80;5.15;;;;;;;11.31;62.49;102743.56;5053093;28;20099;-65
2023/05/18 10:10:21;;;;;;;14.50;4.78;;;;;;;11.41;61.70;102741.16;5052703;28;20052;-66
2023/05/18 10:12:53;;;;;;;12.48;4.40;;;;;;;11.42;61.11;102739.25;5057200;28;20047;-65
2023/05/18 10:15:22;;;;;;;16.88;4.72;;;;;;;11.43;60.43;102736.31;5057569;28;20049;-66
2023/05/18 10:17:54;;;;;;;15.88;4.78;;;;;;;11.50;62.50;102734.34;5056076;28;20052;-66
2023/05/18 10:20:25;;;;;;;13.35;4.38;;;;;;;11.51;60.54;102741.44;5056824;28;20469;-66
2023/05/18 10:22:55;;;;;;;13.88;4.65;;;;;;;11.61;61.16;102740.91;5039707;28;20055;-66
2023/05/18 10:25:25;;;;;;;15.07;4.57;;;;;;;11.47;60.01;102732.06;5039681;28;20500;-66
2023/05/18 10:27:59;;;;;;;12.73;4.30;;;;;;;11.39;59.76;102721.44;5056923;28;20140;-65
2023/05/18 10:30:27;;;;;;;12.00;4.18;;;;;;;11.48;61.07;102725.53;5055980;28;20044;-66
2023/05/18 10:32:56;;;;;;;14.55;4.40;;;;;;;11.61;60.51;102726.44;5056988;28;20180;-65
2023/05/18 10:35:27;;;;;;;12.85;3.33;;;;;;;11.67;60.02;102715.44;5057069;28;20095;-66
2023/05/18 10:37:56;;;;;;;13.93;4.32;;;;;;;11.73;58.94;102716.41;5055563;28;20143;-65
2023/05/18 10:40:25;;;;;;;13.82;5.05;;;;;;;11.79;58.53;102710.06;5060086;28;20124;-66
2023/05/18 10:42:54;;;;;;;12.52;4.57;;;;;;;11.84;58.19;102715.66;5056746;28;20084;-65
2023/05/18 10:45:22;;;;;;;11.68;3.95;;;;;;;11.89;57.38;102713.09;5055895;28;20052;-66
2023/05/18 10:47:53;;;;;;;15.13;4.45;;;;;;;11.91;60.07;102710.97;5056090;28;20080;-66
2023/05/18 10:50:22;;;;;;;13.63;3.88;;;;;;;11.87;59.38;102707.00;5061505;28;20119;-66
2023/05/18 10:52:51;;;;;;;12.00;4.00;;;;;;;11.89;60.52;102696.69;5076525;28;20143;-65
2023/05/18 10:55:19;;;;;;;12.60;4.38;;;;;;;12.02;61.16;102703.03;5075587;28;20447;-65
2023/05/18 10:57:51;;;;;;;15.38;4.75;;;;;;;12.10;60.02;102708.19;5077665;28;20045;-64
2023/05/18 11:00:19;;;;;;;13.73;3.83;;;;;;;12.05;59.56;102703.44;5058829;28;20041;-65
2023/05/18 11:02:49;;;;;;;12.40;4.47;;;;;;;12.04;58.78;102700.91;5041619;28;20044;-65
2023/05/18 11:05:24;;;;;;;11.82;3.95;;;;;;;12.06;58.46;102696.06;5058130;28;20080;-66
2023/05/18 11:08:00;;;;;;;13.68;4.50;;;;;;;12.04;59.18;102692.72;5059373;28;20049;-66
2023/05/18 11:10:42;;;;;;;14.57;4.78;;;;;;;12.06;58.46;102690.59;5059285;28;20114;-66
2023/05/18 11:13:10;;;;;;;13.27;4.90;;;;;;;12.13;59.54;102697.63;5057493;28;20488;-66
2023/05/18 11:15:53;;;;;;;11.98;4.07;;;;;;;12.20;56.94;102691.25;5058116;28;20033;-66
2023/05/18 11:18:38;;;;;;;12.35;4.30;;;;;;;12.18;56.69;102699.66;5059887;28;20059;-65
2023/05/18 11:21:27;;;;;;;12.38;4.88;;;;;;;12.18;57.58;102691.47;5074840;28;20131;-65
2023/05/18 11:24:16;;;;;;;17.20;4.40;;;;;;;12.30;57.44;102684.13;5076772;28;20589;-64
2023/05/18 11:27:11;;;;;;;10.00;3.70;;;;;;;12.41;58.06;102682.50;5076507;28;20477;-65
2023/05/18 11:29:47;;;;;;;14.57;4.80;;;;;;;12.50;56.49;102681.06;5062832;28;20060;-65
2023/05/18 11:32:32;;;;;;;12.95;4.57;;;;;;;12.60;58.24;102679.66;5034983;28;20037;-65
2023/05/18 11:35:00;;;;;;;13.10;4.10;;;;;;;12.58;56.60;102682.66;5055316;28;20396;-66
2023/05/18 11:37:37;;;;;;;14.20;4.88;;;;;;;12.60;57.74;102675.03;5056028;28;20045;-66
2023/05/18 11:40:06;;;;;;;10.98;4.22;;;;;;;12.70;58.65;102682.63;5074834;28;20041;-65